Flight Track Log - Related Links

Times and Time Zones

All times are in EDT time to prevent confusion due to time zone crossing. See the FLG3931 flight status page for this flight to view local times or setup timezone preferences in your user account.

Time Position Orientation Groundspeed Altitude Reporting Facility
EDT Latitude Longitude Course Direction KTS MPH feet Rate Location/Type
Sun 07:15:00 AM 43.6480 -84.4365 299° West  Level FlightAware Approximate
Sun 07:15:02 AM 43.5614 -84.2478 298° West 230 265 28,000  Level Minneapolis Center
Sun 07:16:00 AM 43.6963 -84.5574 299° West  Level FlightAware Approximate
Sun 07:16:03 AM 43.5864 -84.3125 298° West 262 302 7,300  Level Minneapolis Center
Sun 07:17:00 AM 43.7362 -84.6841 293° West  Level FlightAware Approximate
Sun 07:17:03 AM 43.6286 -84.4264 297° West 275 316 10,300  Level Minneapolis Center
Sun 07:18:00 AM 43.7764 -84.8107 296° West  Level FlightAware Approximate
Sun 07:18:04 AM 43.6650 -84.5275 296° West 288 331 12,100  Level Minneapolis Center
Sun 07:19:00 AM 43.8221 -84.9399 296° West  Level FlightAware Approximate
Sun 07:19:04 AM 43.7058 -84.6417 296° West 317 365 13,200  Level Minneapolis Center
Sun 07:20:00 AM 43.8677 -85.0693 298° West  Level FlightAware Approximate
Sun 07:20:05 AM 43.7483 -84.7647 296° West 346 398 14,500  Level Minneapolis Center
Sun 07:21:05 AM 43.7828 -84.8997 290° West 366 421 16,100 1,438 Climbing Minneapolis Center
Sun 07:22:06 AM 43.8161 -85.0331 289° West 370 426 17,400 1,091 Climbing Minneapolis Center
Sun 07:23:06 AM 43.8506 -85.1708 289° West 377 434 18,300 992 Climbing Minneapolis Center
Sun 07:24:07 AM 43.8836 -85.3131 288° West 386 444 19,400 1,240 Climbing Minneapolis Center
Sun 07:25:07 AM 43.8703 -85.4622 263° West 392 451 20,800 1,488 Climbing Minneapolis Center
Sun 07:26:08 AM 43.8608 -85.6017 265° West 377 434 22,400 1,190 Climbing Minneapolis Center
Sun 07:27:08 AM 43.8475 -85.7458 263° West 376 433 23,200 793 Climbing Minneapolis Center
Sun 07:28:09 AM 43.8319 -85.8931 262° West 385 443 24,000 694 Climbing Minneapolis Center
Sun 07:29:09 AM 43.8303 -86.0469 269° West 407 468 24,600 496 Climbing Minneapolis Center
Sun 07:30:10 AM 43.8633 -86.1950 287° West 410 472 25,000 198 Climbing Minneapolis Center
Sun 07:31:10 AM 43.8989 -86.3519 288° West 423 487 25,000 198 Level Minneapolis Center
Sun 07:32:11 AM 43.9344 -86.5139 287° West 439 505 25,400 496 Climbing Minneapolis Center
Sun 07:33:11 AM 43.9706 -86.6756 287° West 441 507 26,000 595 Climbing Minneapolis Center
Sun 07:34:12 AM 44.0125 -86.8686 287° West 438 504 26,600 541 Climbing Minneapolis Center
Sun 07:35:13 AM 44.0469 -87.0317 286° West 441 507 27,100 496 Climbing Minneapolis Center
Sun 07:36:13 AM 44.0817 -87.1925 287° West 439 505 27,600 446 Climbing Minneapolis Center
Sun 07:37:14 AM 44.1092 -87.3194 287° West 436 502 28,000 198 Climbing Minneapolis Center
Sun 07:38:14 AM 44.1494 -87.5106 286° West 441 507 28,000  Level Minneapolis Center
Sun 07:39:15 AM 44.1833 -87.6772 286° West 446 513 28,000  Level Minneapolis Center
Sun 07:40:16 AM 44.2114 -87.8147 286° West 445 512 28,000  Level Minneapolis Center
Sun 07:41:16 AM 44.2519 -88.0069 286° West 443 510 28,000  Level Minneapolis Center
Sun 07:42:17 AM 44.2856 -88.1714 286° West 443 510 28,000  Level Minneapolis Center
Sun 07:43:18 AM 44.3214 -88.3600 285° West 435 501 28,000  Level Minneapolis Center
Sun 07:44:18 AM 44.3550 -88.5236 286° West 437 503 28,000  Level Minneapolis Center
Sun 07:45:19 AM 44.3872 -88.6878 285° West 438 504 28,000  Level Minneapolis Center
Sun 07:46:20 AM 44.4186 -88.8553 285° West 443 510 28,000  Level Minneapolis Center
Sun 07:47:20 AM 44.4508 -89.0203 285° West 443 510 28,000  Level Minneapolis Center
Sun 07:48:21 AM 44.4825 -89.1864 285° West 442 509 28,000  Level Minneapolis Center
Sun 07:49:22 AM 44.5139 -89.3492 285° West 438 504 28,000  Level Minneapolis Center
Sun 07:50:22 AM 44.5397 -89.4842 285° West 434 499 28,000  Level Minneapolis Center
Sun 07:51:23 AM 44.5764 -89.6758 285° West 434 499 28,000  Level Minneapolis Center
Sun 07:52:36 AM 44.6069 -89.8411 285° West 439 505 28,000  Level Minneapolis Center
Sun 07:53:37 AM 44.6419 -90.0336 284° West 438 504 28,000  Level Minneapolis Center
Sun 07:54:50 AM 44.6728 -90.1969 285° West 435 501 28,000  Level Minneapolis Center
Sun 07:55:51 AM 44.7114 -90.4167 284° West 434 499 28,000  Level Minneapolis Center
Sun 07:56:51 AM 44.7378 -90.5628 284° West 433 498 28,000  Level Minneapolis Center
Sun 07:57:52 AM 44.7672 -90.7228 285° West 426 490 28,000  Level Minneapolis Center
Sun 07:58:53 AM 44.7958 -90.8858 284° West 430 495 28,000 -238 Level Minneapolis Center
Sun 07:59:58 AM 44.8303 -91.0814 284° West 431 496 27,500 -1,286 Descending Minneapolis Center
Sun 08:00:59 AM 44.8583 -91.2444 284° West 431 496 25,300 -1,970 Descending Minneapolis Center
Sun 08:02:12 AM 44.8850 -91.3981 284° West 417 480 23,100 -1,970 Descending Minneapolis Center
Sun 08:03:13 AM 44.9108 -91.5419 284° West 392 451 20,900 -2,194 Descending Minneapolis Center
Sun 08:04:26 AM 44.9425 -91.7058 285° West 368 423 18,200 -2,194 Descending Minneapolis Center
Sun 08:05:27 AM 44.9728 -91.8689 285° West 362 417 16,000 -1,918 Descending Minneapolis Center
Sun 08:06:28 AM 44.9983 -92.0044 285° West 359 413 14,300 -1,488 Descending Minneapolis Center
Sun 08:07:28 AM 45.0181 -92.1103 285° West 353 406 13,000 -1,587 Descending Minneapolis Center
Sun 08:08:29 AM 45.0486 -92.2881 284° West 335 386 11,100 -984 Descending Minneapolis Center
Sun 08:09:30 AM 45.0297 -92.4122 258° West 323 372 11,000 -49 Descending Minneapolis Center
Sun 08:10:31 AM 45.0108 -92.5353 258° West 323 372 11,000  Level Minneapolis Center
Sun 08:11:32 AM 44.9911 -92.6583 257° West 322 371 11,000  Level Minneapolis Center
Sun 08:12:33 AM 44.9711 -92.7808 257° West 322 371 11,000  Level Minneapolis Center
Sun 08:13:34 AM 44.9517 -92.9028 257° West 320 368 11,000 -492 Level Minneapolis Center
Sun 08:14:35 AM 44.9331 -93.0164 257° West 301 346 10,000 -1,426 Descending Minneapolis Center
Sun 08:15:36 AM 44.9456 -93.1128 280° West 275 316 8,100 -1,475 Descending Minneapolis Center
Sun 08:16:37 AM 44.9792 -93.1947 300° West 240 276 7,000 -1,289 Descending Minneapolis Center
Sun 08:17:37 AM 44.9869 -93.2489 281° West 188 216 5,500 -1,500 Descending Minneapolis Center

Login

Don't have an account? Register now (free) for customized features, flight alerts, and more!